sensor_id;sensor_type;location;lat;lon;timestamp;P1;durP1;ratioP1;P2;durP2;ratioP2
72373;SDS011;60349;64.132;-21.820;2023-02-10T00:01:36;55.88;;;28.48;;
72373;SDS011;60349;64.132;-21.820;2023-02-10T00:04:02;62.25;;;27.27;;
72373;SDS011;60349;64.132;-21.820;2023-02-10T00:06:28;50.90;;;25.08;;
72373;SDS011;60349;64.132;-21.820;2023-02-10T00:08:56;46.10;;;23.50;;
72373;SDS011;60349;64.132;-21.820;2023-02-10T00:11:22;40.97;;;20.85;;
72373;SDS011;60349;64.132;-21.820;2023-02-10T00:14:08;36.30;;;19.17;;
72373;SDS011;60349;64.132;-21.820;2023-02-10T00:16:35;36.58;;;17.70;;
72373;SDS011;60349;64.132;-21.820;2023-02-10T00:19:01;31.27;;;16.08;;
72373;SDS011;60349;64.132;-21.820;2023-02-10T00:21:27;28.35;;;14.30;;
72373;SDS011;60349;64.132;-21.820;2023-02-10T00:23:53;25.45;;;13.30;;
72373;SDS011;60349;64.132;-21.820;2023-02-10T00:26:19;24.00;;;12.98;;
72373;SDS011;60349;64.132;-21.820;2023-02-10T00:28:45;21.80;;;10.88;;
72373;SDS011;60349;64.132;-21.820;2023-02-10T00:31:13;24.63;;;9.43;;
72373;SDS011;60349;64.132;-21.820;2023-02-10T00:33:40;18.15;;;8.43;;
72373;SDS011;60349;64.132;-21.820;2023-02-10T00:36:06;17.40;;;8.65;;
72373;SDS011;60349;64.132;-21.820;2023-02-10T00:38:34;12.07;;;5.78;;
72373;SDS011;60349;64.132;-21.820;2023-02-10T00:41:08;14.18;;;5.90;;
72373;SDS011;60349;64.132;-21.820;2023-02-10T00:43:34;14.45;;;5.85;;
72373;SDS011;60349;64.132;-21.820;2023-02-10T00:46:01;10.25;;;3.95;;
72373;SDS011;60349;64.132;-21.820;2023-02-10T00:48:27;11.23;;;5.32;;
72373;SDS011;60349;64.132;-21.820;2023-02-10T00:50:54;11.45;;;4.20;;
72373;SDS011;60349;64.132;-21.820;2023-02-10T00:53:20;9.23;;;3.83;;
72373;SDS011;60349;64.132;-21.820;2023-02-10T00:55:46;10.20;;;3.78;;
72373;SDS011;60349;64.132;-21.820;2023-02-10T00:58:12;6.07;;;2.28;;
72373;SDS011;60349;64.132;-21.820;2023-02-10T01:00:38;6.30;;;1.90;;
72373;SDS011;60349;64.132;-21.820;2023-02-10T01:03:04;6.07;;;1.52;;
72373;SDS011;60349;64.132;-21.820;2023-02-10T01:05:30;6.00;;;1.67;;
72373;SDS011;60349;64.132;-21.820;2023-02-10T01:07:57;6.65;;;1.48;;
72373;SDS011;60349;64.132;-21.820;2023-02-10T01:10:23;5.95;;;1.60;;
72373;SDS011;60349;64.132;-21.820;2023-02-10T01:12:50;26.17;;;13.45;;
72373;SDS011;60349;64.132;-21.820;2023-02-10T01:15:16;24.30;;;11.95;;
72373;SDS011;60349;64.132;-21.820;2023-02-10T01:17:42;20.60;;;7.88;;
72373;SDS011;60349;64.132;-21.820;2023-02-10T01:20:08;16.77;;;7.78;;
72373;SDS011;60349;64.132;-21.820;2023-02-10T01:22:35;18.20;;;7.95;;
72373;SDS011;60349;64.132;-21.820;2023-02-10T01:25:02;12.75;;;6.15;;
72373;SDS011;60349;64.132;-21.820;2023-02-10T01:27:28;10.82;;;5.05;;
72373;SDS011;60349;64.132;-21.820;2023-02-10T01:29:54;10.85;;;5.30;;
72373;SDS011;60349;64.132;-21.820;2023-02-10T01:32:20;11.40;;;4.63;;
72373;SDS011;60349;64.132;-21.820;2023-02-10T01:34:46;11.45;;;3.30;;
72373;SDS011;60349;64.132;-21.820;2023-02-10T01:37:12;9.43;;;3.88;;
72373;SDS011;60349;64.132;-21.820;2023-02-10T01:39:38;8.20;;;3.22;;
72373;SDS011;60349;64.132;-21.820;2023-02-10T01:42:04;8.57;;;2.70;;
72373;SDS011;60349;64.132;-21.820;2023-02-10T01:46:58;7.88;;;1.88;;
72373;SDS011;60349;64.132;-21.820;2023-02-10T01:49:28;5.63;;;1.85;;
72373;SDS011;60349;64.132;-21.820;2023-02-10T01:54:24;6.70;;;1.55;;
72373;SDS011;60349;64.132;-21.820;2023-02-10T01:56:50;3.92;;;0.80;;
72373;SDS011;60349;64.132;-21.820;2023-02-10T01:59:17;4.93;;;1.20;;
72373;SDS011;60349;64.132;-21.820;2023-02-10T02:01:44;3.38;;;0.52;;
72373;SDS011;60349;64.132;-21.820;2023-02-10T02:04:10;5.78;;;0.70;;
72373;SDS011;60349;64.132;-21.820;2023-02-10T02:06:36;3.85;;;0.60;;
72373;SDS011;60349;64.132;-21.820;2023-02-10T02:09:03;3.63;;;0.95;;
72373;SDS011;60349;64.132;-21.820;2023-02-10T02:16:38;3.35;;;0.60;;
72373;SDS011;60349;64.132;-21.820;2023-02-10T02:32:45;2.15;;;0.30;;
72373;SDS011;60349;64.132;-21.820;2023-02-10T02:35:15;1.80;;;0.30;;
72373;SDS011;60349;64.132;-21.820;2023-02-10T02:37:43;3.05;;;0.20;;
72373;SDS011;60349;64.132;-21.820;2023-02-10T02:40:11;2.28;;;0.55;;
72373;SDS011;60349;64.132;-21.820;2023-02-10T02:42:37;2.05;;;0.20;;
72373;SDS011;60349;64.132;-21.820;2023-02-10T02:45:10;1.42;;;0.20;;
72373;SDS011;60349;64.132;-21.820;2023-02-10T02:58:24;1.15;;;0.13;;
72373;SDS011;60349;64.132;-21.820;2023-02-10T03:00:42;3.22;;;0.10;;
72373;SDS011;60349;64.132;-21.820;2023-02-10T03:03:08;2.25;;;0.10;;
72373;SDS011;60349;64.132;-21.820;2023-02-10T03:05:35;0.63;;;0.10;;
72373;SDS011;60349;64.132;-21.820;2023-02-10T03:08:02;1.00;;;0.10;;
72373;SDS011;60349;64.132;-21.820;2023-02-10T03:10:28;1.17;;;0.10;;
72373;SDS011;60349;64.132;-21.820;2023-02-10T03:12:54;1.52;;;0.10;;
72373;SDS011;60349;64.132;-21.820;2023-02-10T03:15:21;2.63;;;0.10;;
72373;SDS011;60349;64.132;-21.820;2023-02-10T03:17:47;1.52;;;0.10;;
72373;SDS011;60349;64.132;-21.820;2023-02-10T03:20:13;1.88;;;0.10;;
72373;SDS011;60349;64.132;-21.820;2023-02-10T03:22:40;1.88;;;0.10;;
72373;SDS011;60349;64.132;-21.820;2023-02-10T03:25:07;1.17;;;0.10;;
72373;SDS011;60349;64.132;-21.820;2023-02-10T03:27:33;1.88;;;0.10;;
72373;SDS011;60349;64.132;-21.820;2023-02-10T03:29:59;0.63;;;0.10;;
72373;SDS011;60349;64.132;-21.820;2023-02-10T03:32:25;0.68;;;0.10;;
72373;SDS011;60349;64.132;-21.820;2023-02-10T03:34:51;1.05;;;0.10;;
72373;SDS011;60349;64.132;-21.820;2023-02-10T03:37:17;1.42;;;0.10;;
72373;SDS011;60349;64.132;-21.820;2023-02-10T03:39:43;0.40;;;0.00;;
72373;SDS011;60349;64.132;-21.820;2023-02-10T03:42:09;0.30;;;0.00;;
72373;SDS011;60349;64.132;-21.820;2023-02-10T03:44:36;0.73;;;0.10;;
72373;SDS011;60349;64.132;-21.820;2023-02-10T03:47:02;1.50;;;0.10;;
72373;SDS011;60349;64.132;-21.820;2023-02-10T03:49:29;1.50;;;0.00;;
72373;SDS011;60349;64.132;-21.820;2023-02-10T03:51:55;0.50;;;0.00;;
72373;SDS011;60349;64.132;-21.820;2023-02-10T03:54:21;1.80;;;0.00;;
72373;SDS011;60349;64.132;-21.820;2023-02-10T03:56:47;0.82;;;0.00;;
72373;SDS011;60349;64.132;-21.820;2023-02-10T03:59:13;0.80;;;0.00;;
72373;SDS011;60349;64.132;-21.820;2023-02-10T04:01:39;0.45;;;0.00;;
72373;SDS011;60349;64.132;-21.820;2023-02-10T04:04:05;0.47;;;0.00;;
72373;SDS011;60349;64.132;-21.820;2023-02-10T04:06:31;0.82;;;0.00;;
72373;SDS011;60349;64.132;-21.820;2023-02-10T04:08:57;0.95;;;0.00;;
72373;SDS011;60349;64.132;-21.820;2023-02-10T04:11:23;1.77;;;0.00;;
72373;SDS011;60349;64.132;-21.820;2023-02-10T04:13:49;0.60;;;0.00;;
72373;SDS011;60349;64.132;-21.820;2023-02-10T04:16:16;2.10;;;0.00;;
72373;SDS011;60349;64.132;-21.820;2023-02-10T04:18:44;0.65;;;0.00;;
72373;SDS011;60349;64.132;-21.820;2023-02-10T04:21:11;1.38;;;0.00;;
72373;SDS011;60349;64.132;-21.820;2023-02-10T04:23:37;1.40;;;0.00;;
72373;SDS011;60349;64.132;-21.820;2023-02-10T04:26:04;1.20;;;0.00;;
72373;SDS011;60349;64.132;-21.820;2023-02-10T04:28:30;0.93;;;0.00;;
72373;SDS011;60349;64.132;-21.820;2023-02-10T04:30:57;0.47;;;0.00;;
72373;SDS011;60349;64.132;-21.820;2023-02-10T04:33:23;2.22;;;0.00;;
72373;SDS011;60349;64.132;-21.820;2023-02-10T04:35:50;0.30;;;0.00;;
72373;SDS011;60349;64.132;-21.820;2023-02-10T04:38:17;1.27;;;0.00;;
72373;SDS011;60349;64.132;-21.820;2023-02-10T04:40:43;0.57;;;0.00;;
72373;SDS011;60349;64.132;-21.820;2023-02-10T04:43:09;0.63;;;0.00;;
72373;SDS011;60349;64.132;-21.820;2023-02-10T04:45:36;0.20;;;0.00;;
72373;SDS011;60349;64.132;-21.820;2023-02-10T04:48:02;2.55;;;0.00;;
72373;SDS011;60349;64.132;-21.820;2023-02-10T04:50:28;0.55;;;0.00;;
72373;SDS011;60349;64.132;-21.820;2023-02-10T04:52:54;0.10;;;0.00;;
72373;SDS011;60349;64.132;-21.820;2023-02-10T04:55:20;1.75;;;0.00;;
72373;SDS011;60349;64.132;-21.820;2023-02-10T04:57:47;0.70;;;0.00;;
72373;SDS011;60349;64.132;-21.820;2023-02-10T05:00:13;0.45;;;0.00;;
72373;SDS011;60349;64.132;-21.820;2023-02-10T05:02:39;0.43;;;0.00;;
72373;SDS011;60349;64.132;-21.820;2023-02-10T05:05:06;0.63;;;0.00;;
72373;SDS011;60349;64.132;-21.820;2023-02-10T05:07:32;0.05;;;0.00;;
72373;SDS011;60349;64.132;-21.820;2023-02-10T05:09:58;0.00;;;0.00;;
72373;SDS011;60349;64.132;-21.820;2023-02-10T05:12:24;0.13;;;0.00;;
72373;SDS011;60349;64.132;-21.820;2023-02-10T05:14:50;0.20;;;0.00;;
72373;SDS011;60349;64.132;-21.820;2023-02-10T05:17:16;0.30;;;0.00;;
72373;SDS011;60349;64.132;-21.820;2023-02-10T05:19:43;0.30;;;0.00;;
72373;SDS011;60349;64.132;-21.820;2023-02-10T05:22:09;0.20;;;0.00;;
72373;SDS011;60349;64.132;-21.820;2023-02-10T05:24:35;2.20;;;0.00;;
72373;SDS011;60349;64.132;-21.820;2023-02-10T05:27:01;0.38;;;0.00;;
72373;SDS011;60349;64.132;-21.820;2023-02-10T05:29:27;0.10;;;0.00;;
72373;SDS011;60349;64.132;-21.820;2023-02-10T05:31:53;0.82;;;0.00;;
72373;SDS011;60349;64.132;-21.820;2023-02-10T05:34:20;0.10;;;0.00;;
72373;SDS011;60349;64.132;-21.820;2023-02-10T05:36:46;0.00;;;0.00;;
72373;SDS011;60349;64.132;-21.820;2023-02-10T05:39:12;0.40;;;0.00;;
72373;SDS011;60349;64.132;-21.820;2023-02-10T05:41:52;0.73;;;0.00;;
72373;SDS011;60349;64.132;-21.820;2023-02-10T05:44:18;3.40;;;0.00;;
72373;SDS011;60349;64.132;-21.820;2023-02-10T05:46:45;2.00;;;0.00;;
72373;SDS011;60349;64.132;-21.820;2023-02-10T05:49:11;0.28;;;0.00;;
72373;SDS011;60349;64.132;-21.820;2023-02-10T05:51:37;0.10;;;0.00;;
72373;SDS011;60349;64.132;-21.820;2023-02-10T05:54:03;0.05;;;0.00;;
72373;SDS011;60349;64.132;-21.820;2023-02-10T05:56:30;0.10;;;0.00;;
72373;SDS011;60349;64.132;-21.820;2023-02-10T05:58:56;0.30;;;0.00;;
72373;SDS011;60349;64.132;-21.820;2023-02-10T06:01:22;1.42;;;0.00;;
72373;SDS011;60349;64.132;-21.820;2023-02-10T06:03:49;0.30;;;0.00;;
72373;SDS011;60349;64.132;-21.820;2023-02-10T06:06:15;0.20;;;0.00;;
72373;SDS011;60349;64.132;-21.820;2023-02-10T06:08:41;0.35;;;0.00;;
72373;SDS011;60349;64.132;-21.820;2023-02-10T06:11:07;0.10;;;0.00;;
72373;SDS011;60349;64.132;-21.820;2023-02-10T06:13:34;0.20;;;0.00;;
72373;SDS011;60349;64.132;-21.820;2023-02-10T06:16:00;0.10;;;0.00;;
72373;SDS011;60349;64.132;-21.820;2023-02-10T06:18:27;0.10;;;0.00;;
72373;SDS011;60349;64.132;-21.820;2023-02-10T06:20:53;0.50;;;0.00;;
72373;SDS011;60349;64.132;-21.820;2023-02-10T06:23:19;0.08;;;0.00;;
72373;SDS011;60349;64.132;-21.820;2023-02-10T06:25:45;0.10;;;0.00;;
72373;SDS011;60349;64.132;-21.820;2023-02-10T06:28:12;0.05;;;0.00;;
72373;SDS011;60349;64.132;-21.820;2023-02-10T06:30:39;0.05;;;0.00;;
72373;SDS011;60349;64.132;-21.820;2023-02-10T06:33:05;0.00;;;0.00;;
72373;SDS011;60349;64.132;-21.820;2023-02-10T06:35:31;0.00;;;0.00;;
72373;SDS011;60349;64.132;-21.820;2023-02-10T06:37:58;0.00;;;0.00;;
72373;SDS011;60349;64.132;-21.820;2023-02-10T06:40:24;0.03;;;0.00;;
72373;SDS011;60349;64.132;-21.820;2023-02-10T06:42:50;0.10;;;0.00;;
72373;SDS011;60349;64.132;-21.820;2023-02-10T06:45:16;1.65;;;0.00;;
72373;SDS011;60349;64.132;-21.820;2023-02-10T06:47:42;0.10;;;0.00;;
72373;SDS011;60349;64.132;-21.820;2023-02-10T06:50:08;0.03;;;0.00;;
72373;SDS011;60349;64.132;-21.820;2023-02-10T06:52:34;0.05;;;0.00;;
72373;SDS011;60349;64.132;-21.820;2023-02-10T06:55:06;0.10;;;0.00;;
72373;SDS011;60349;64.132;-21.820;2023-02-10T06:57:32;0.00;;;0.00;;
72373;SDS011;60349;64.132;-21.820;2023-02-10T07:00:00;0.45;;;0.00;;
72373;SDS011;60349;64.132;-21.820;2023-02-10T07:02:26;0.00;;;0.00;;
72373;SDS011;60349;64.132;-21.820;2023-02-10T07:04:54;0.00;;;0.00;;
72373;SDS011;60349;64.132;-21.820;2023-02-10T07:07:20;0.00;;;0.00;;
72373;SDS011;60349;64.132;-21.820;2023-02-10T07:09:46;0.10;;;0.00;;
72373;SDS011;60349;64.132;-21.820;2023-02-10T07:12:12;0.10;;;0.00;;
72373;SDS011;60349;64.132;-21.820;2023-02-10T07:14:38;0.10;;;0.00;;
72373;SDS011;60349;64.132;-21.820;2023-02-10T07:17:04;0.00;;;0.00;;
72373;SDS011;60349;64.132;-21.820;2023-02-10T07:19:30;0.22;;;0.00;;
72373;SDS011;60349;64.132;-21.820;2023-02-10T07:21:57;2.90;;;0.00;;
72373;SDS011;60349;64.132;-21.820;2023-02-10T07:24:23;0.15;;;0.00;;
72373;SDS011;60349;64.132;-21.820;2023-02-10T07:26:49;0.95;;;0.00;;
72373;SDS011;60349;64.132;-21.820;2023-02-10T07:29:15;1.65;;;0.00;;
72373;SDS011;60349;64.132;-21.820;2023-02-10T07:31:41;0.22;;;0.00;;
72373;SDS011;60349;64.132;-21.820;2023-02-10T07:34:07;0.73;;;0.00;;
72373;SDS011;60349;64.132;-21.820;2023-02-10T07:36:33;0.00;;;0.00;;
72373;SDS011;60349;64.132;-21.820;2023-02-10T07:38:59;0.68;;;0.00;;
72373;SDS011;60349;64.132;-21.820;2023-02-10T07:41:25;0.57;;;0.00;;
72373;SDS011;60349;64.132;-21.820;2023-02-10T07:43:51;1.75;;;0.00;;
72373;SDS011;60349;64.132;-21.820;2023-02-10T07:46:18;0.25;;;0.00;;
72373;SDS011;60349;64.132;-21.820;2023-02-10T07:48:44;0.90;;;0.00;;
72373;SDS011;60349;64.132;-21.820;2023-02-10T07:51:10;2.50;;;0.00;;
72373;SDS011;60349;64.132;-21.820;2023-02-10T07:53:36;0.52;;;0.00;;
72373;SDS011;60349;64.132;-21.820;2023-02-10T07:56:02;1.95;;;0.10;;
72373;SDS011;60349;64.132;-21.820;2023-02-10T07:58:29;0.65;;;0.00;;
72373;SDS011;60349;64.132;-21.820;2023-02-10T08:00:55;1.52;;;0.00;;
72373;SDS011;60349;64.132;-21.820;2023-02-10T08:03:21;1.02;;;0.00;;
72373;SDS011;60349;64.132;-21.820;2023-02-10T08:05:48;1.00;;;0.00;;
72373;SDS011;60349;64.132;-21.820;2023-02-10T08:08:14;0.70;;;0.00;;
72373;SDS011;60349;64.132;-21.820;2023-02-10T08:10:40;1.13;;;0.00;;
72373;SDS011;60349;64.132;-21.820;2023-02-10T08:13:07;1.58;;;0.00;;
72373;SDS011;60349;64.132;-21.820;2023-02-10T08:15:33;0.90;;;0.00;;
72373;SDS011;60349;64.132;-21.820;2023-02-10T08:18:00;0.88;;;0.00;;
72373;SDS011;60349;64.132;-21.820;2023-02-10T08:20:26;1.42;;;0.10;;
72373;SDS011;60349;64.132;-21.820;2023-02-10T08:22:53;3.00;;;0.00;;
72373;SDS011;60349;64.132;-21.820;2023-02-10T08:25:19;1.10;;;0.10;;
72373;SDS011;60349;64.132;-21.820;2023-02-10T08:27:46;3.08;;;0.10;;
72373;SDS011;60349;64.132;-21.820;2023-02-10T08:30:12;3.67;;;0.10;;
72373;SDS011;60349;64.132;-21.820;2023-02-10T08:32:38;1.67;;;0.10;;
72373;SDS011;60349;64.132;-21.820;2023-02-10T08:35:04;2.90;;;0.10;;
72373;SDS011;60349;64.132;-21.820;2023-02-10T08:37:30;2.42;;;0.10;;
72373;SDS011;60349;64.132;-21.820;2023-02-10T08:39:56;3.05;;;0.10;;
72373;SDS011;60349;64.132;-21.820;2023-02-10T08:42:23;3.63;;;0.20;;
72373;SDS011;60349;64.132;-21.820;2023-02-10T08:44:49;2.10;;;0.10;;
72373;SDS011;60349;64.132;-21.820;2023-02-10T08:47:15;1.33;;;0.10;;
72373;SDS011;60349;64.132;-21.820;2023-02-10T08:49:42;2.22;;;0.10;;
72373;SDS011;60349;64.132;-21.820;2023-02-10T08:52:08;6.75;;;0.20;;
72373;SDS011;60349;64.132;-21.820;2023-02-10T08:54:34;5.82;;;0.25;;
72373;SDS011;60349;64.132;-21.820;2023-02-10T08:57:00;4.57;;;0.60;;
72373;SDS011;60349;64.132;-21.820;2023-02-10T08:59:26;4.30;;;0.32;;
72373;SDS011;60349;64.132;-21.820;2023-02-10T09:01:53;5.22;;;0.70;;
72373;SDS011;60349;64.132;-21.820;2023-02-10T09:04:19;5.03;;;0.40;;
72373;SDS011;60349;64.132;-21.820;2023-02-10T09:06:45;4.47;;;0.40;;
72373;SDS011;60349;64.132;-21.820;2023-02-10T09:09:13;2.30;;;0.30;;
72373;SDS011;60349;64.132;-21.820;2023-02-10T09:11:39;5.22;;;0.50;;
72373;SDS011;60349;64.132;-21.820;2023-02-10T09:14:06;9.60;;;0.63;;
72373;SDS011;60349;64.132;-21.820;2023-02-10T09:16:32;3.85;;;0.55;;
72373;SDS011;60349;64.132;-21.820;2023-02-10T09:18:58;5.25;;;0.85;;
72373;SDS011;60349;64.132;-21.820;2023-02-10T09:21:24;6.40;;;0.50;;
72373;SDS011;60349;64.132;-21.820;2023-02-10T09:23:50;4.20;;;0.52;;
72373;SDS011;60349;64.132;-21.820;2023-02-10T09:26:17;7.25;;;0.38;;
72373;SDS011;60349;64.132;-21.820;2023-02-10T09:28:43;13.20;;;4.15;;
72373;SDS011;60349;64.132;-21.820;2023-02-10T09:31:11;14.60;;;4.28;;
72373;SDS011;60349;64.132;-21.820;2023-02-10T09:33:37;19.52;;;6.72;;
72373;SDS011;60349;64.132;-21.820;2023-02-10T09:36:04;27.13;;;11.27;;
72373;SDS011;60349;64.132;-21.820;2023-02-10T09:38:30;28.55;;;12.25;;
72373;SDS011;60349;64.132;-21.820;2023-02-10T09:46:35;30.92;;;14.43;;
72373;SDS011;60349;64.132;-21.820;2023-02-10T09:54:18;31.05;;;12.73;;
72373;SDS011;60349;64.132;-21.820;2023-02-10T09:56:45;25.35;;;11.27;;
72373;SDS011;60349;64.132;-21.820;2023-02-10T09:59:12;28.80;;;10.07;;
72373;SDS011;60349;64.132;-21.820;2023-02-10T10:01:44;24.40;;;9.27;;
72373;SDS011;60349;64.132;-21.820;2023-02-10T10:06:39;28.42;;;9.32;;
72373;SDS011;60349;64.132;-21.820;2023-02-10T10:14:04;29.35;;;8.48;;
72373;SDS011;60349;64.132;-21.820;2023-02-10T10:19:22;25.80;;;7.07;;
72373;SDS011;60349;64.132;-21.820;2023-02-10T10:24:33;21.73;;;7.28;;
72373;SDS011;60349;64.132;-21.820;2023-02-10T10:29:37;22.10;;;6.70;;
72373;SDS011;60349;64.132;-21.820;2023-02-10T10:32:12;24.85;;;6.32;;
72373;SDS011;60349;64.132;-21.820;2023-02-10T10:34:39;24.65;;;7.60;;
72373;SDS011;60349;64.132;-21.820;2023-02-10T10:37:11;24.30;;;6.75;;
72373;SDS011;60349;64.132;-21.820;2023-02-10T10:39:40;24.38;;;7.55;;
72373;SDS011;60349;64.132;-21.820;2023-02-10T10:42:16;26.02;;;8.00;;
72373;SDS011;60349;64.132;-21.820;2023-02-10T10:44:43;20.70;;;6.13;;
72373;SDS011;60349;64.132;-21.820;2023-02-10T10:47:13;22.08;;;6.88;;
72373;SDS011;60349;64.132;-21.820;2023-02-10T10:49:41;20.85;;;5.72;;
72373;SDS011;60349;64.132;-21.820;2023-02-10T10:55:05;21.40;;;5.75;;
72373;SDS011;60349;64.132;-21.820;2023-02-10T10:57:33;18.85;;;5.75;;
72373;SDS011;60349;64.132;-21.820;2023-02-10T11:02:32;24.92;;;6.22;;
72373;SDS011;60349;64.132;-21.820;2023-02-10T11:05:05;22.55;;;5.60;;
72373;SDS011;60349;64.132;-21.820;2023-02-10T11:07:32;23.92;;;6.22;;
72373;SDS011;60349;64.132;-21.820;2023-02-10T11:09:58;24.95;;;5.85;;
72373;SDS011;60349;64.132;-21.820;2023-02-10T11:12:31;25.83;;;6.45;;
72373;SDS011;60349;64.132;-21.820;2023-02-10T11:14:57;24.55;;;6.75;;
72373;SDS011;60349;64.132;-21.820;2023-02-10T11:19:57;21.42;;;4.85;;
72373;SDS011;60349;64.132;-21.820;2023-02-10T11:22:25;25.67;;;4.97;;
72373;SDS011;60349;64.132;-21.820;2023-02-10T11:24:53;22.80;;;5.90;;
72373;SDS011;60349;64.132;-21.820;2023-02-10T11:27:19;20.48;;;4.47;;
72373;SDS011;60349;64.132;-21.820;2023-02-10T11:32:22;20.02;;;4.22;;
72373;SDS011;60349;64.132;-21.820;2023-02-10T11:34:49;21.40;;;4.50;;
72373;SDS011;60349;64.132;-21.820;2023-02-10T11:37:32;24.60;;;4.47;;
72373;SDS011;60349;64.132;-21.820;2023-02-10T11:40:01;15.30;;;3.83;;
72373;SDS011;60349;64.132;-21.820;2023-02-10T11:42:31;18.33;;;4.45;;
72373;SDS011;60349;64.132;-21.820;2023-02-10T11:45:17;20.92;;;5.40;;
72373;SDS011;60349;64.132;-21.820;2023-02-10T11:47:44;19.52;;;4.40;;
72373;SDS011;60349;64.132;-21.820;2023-02-10T11:50:24;21.25;;;4.95;;
72373;SDS011;60349;64.132;-21.820;2023-02-10T11:52:50;18.80;;;4.30;;
72373;SDS011;60349;64.132;-21.820;2023-02-10T11:55:16;23.73;;;3.95;;
72373;SDS011;60349;64.132;-21.820;2023-02-10T11:57:52;22.70;;;3.97;;
72373;SDS011;60349;64.132;-21.820;2023-02-10T12:08:09;34.33;;;11.82;;
72373;SDS011;60349;64.132;-21.820;2023-02-10T12:13:15;43.00;;;17.13;;
72373;SDS011;60349;64.132;-21.820;2023-02-10T12:21:02;40.30;;;14.50;;
72373;SDS011;60349;64.132;-21.820;2023-02-10T12:23:51;35.85;;;13.35;;
72373;SDS011;60349;64.132;-21.820;2023-02-10T12:34:09;33.75;;;11.05;;
72373;SDS011;60349;64.132;-21.820;2023-02-10T12:36:47;33.92;;;9.65;;
72373;SDS011;60349;64.132;-21.820;2023-02-10T12:52:25;25.20;;;7.85;;
72373;SDS011;60349;64.132;-21.820;2023-02-10T12:55:00;22.63;;;8.05;;
72373;SDS011;60349;64.132;-21.820;2023-02-10T12:57:44;20.85;;;6.75;;
72373;SDS011;60349;64.132;-21.820;2023-02-10T13:00:15;20.33;;;5.82;;
72373;SDS011;60349;64.132;-21.820;2023-02-10T13:02:46;23.05;;;7.80;;
72373;SDS011;60349;64.132;-21.820;2023-02-10T13:05:18;20.17;;;6.35;;
72373;SDS011;60349;64.132;-21.820;2023-02-10T13:07:49;19.52;;;5.90;;
72373;SDS011;60349;64.132;-21.820;2023-02-10T13:10:30;20.05;;;5.55;;
72373;SDS011;60349;64.132;-21.820;2023-02-10T13:12:58;16.55;;;4.35;;
72373;SDS011;60349;64.132;-21.820;2023-02-10T13:17:55;15.02;;;3.67;;
72373;SDS011;60349;64.132;-21.820;2023-02-10T13:36:48;16.88;;;3.72;;
72373;SDS011;60349;64.132;-21.820;2023-02-10T13:39:17;15.95;;;3.28;;
72373;SDS011;60349;64.132;-21.820;2023-02-10T13:41:46;13.00;;;2.63;;
72373;SDS011;60349;64.132;-21.820;2023-02-10T13:44:28;11.88;;;2.33;;
72373;SDS011;60349;64.132;-21.820;2023-02-10T13:47:11;13.40;;;2.53;;
72373;SDS011;60349;64.132;-21.820;2023-02-10T13:49:47;16.70;;;3.42;;
72373;SDS011;60349;64.132;-21.820;2023-02-10T13:52:15;9.68;;;2.22;;
72373;SDS011;60349;64.132;-21.820;2023-02-10T13:54:51;10.98;;;1.92;;
72373;SDS011;60349;64.132;-21.820;2023-02-10T13:57:29;12.32;;;1.98;;
72373;SDS011;60349;64.132;-21.820;2023-02-10T14:02:37;12.13;;;1.67;;
72373;SDS011;60349;64.132;-21.820;2023-02-10T14:05:20;10.73;;;2.03;;
72373;SDS011;60349;64.132;-21.820;2023-02-10T14:07:46;9.18;;;1.83;;
72373;SDS011;60349;64.132;-21.820;2023-02-10T14:12:55;13.20;;;1.52;;
72373;SDS011;60349;64.132;-21.820;2023-02-10T14:15:24;11.32;;;1.65;;
72373;SDS011;60349;64.132;-21.820;2023-02-10T14:17:58;11.10;;;2.05;;
72373;SDS011;60349;64.132;-21.820;2023-02-10T14:20:26;10.65;;;1.45;;
72373;SDS011;60349;64.132;-21.820;2023-02-10T14:22:53;10.95;;;1.15;;
72373;SDS011;60349;64.132;-21.820;2023-02-10T14:25:36;9.85;;;1.73;;
72373;SDS011;60349;64.132;-21.820;2023-02-10T14:28:03;9.35;;;1.75;;
72373;SDS011;60349;64.132;-21.820;2023-02-10T14:32:56;8.98;;;1.25;;
72373;SDS011;60349;64.132;-21.820;2023-02-10T14:35:23;9.57;;;1.48;;
72373;SDS011;60349;64.132;-21.820;2023-02-10T14:37:50;10.73;;;1.40;;
72373;SDS011;60349;64.132;-21.820;2023-02-10T14:40:21;9.82;;;1.50;;
72373;SDS011;60349;64.132;-21.820;2023-02-10T14:42:47;9.88;;;1.17;;
72373;SDS011;60349;64.132;-21.820;2023-02-10T14:45:24;10.48;;;1.20;;
72373;SDS011;60349;64.132;-21.820;2023-02-10T14:47:54;6.20;;;0.80;;
72373;SDS011;60349;64.132;-21.820;2023-02-10T14:50:28;7.97;;;1.17;;
72373;SDS011;60349;64.132;-21.820;2023-02-10T14:52:54;13.70;;;1.80;;
72373;SDS011;60349;64.132;-21.820;2023-02-10T14:57:55;13.50;;;1.45;;
72373;SDS011;60349;64.132;-21.820;2023-02-10T15:00:22;14.63;;;2.00;;
72373;SDS011;60349;64.132;-21.820;2023-02-10T15:02:49;12.43;;;1.52;;
72373;SDS011;60349;64.132;-21.820;2023-02-10T15:05:18;11.30;;;1.27;;
72373;SDS011;60349;64.132;-21.820;2023-02-10T15:07:46;13.45;;;2.47;;
72373;SDS011;60349;64.132;-21.820;2023-02-10T15:10:15;12.88;;;1.50;;
72373;SDS011;60349;64.132;-21.820;2023-02-10T15:12:43;11.82;;;1.27;;
72373;SDS011;60349;64.132;-21.820;2023-02-10T15:17:39;9.02;;;1.08;;
72373;SDS011;60349;64.132;-21.820;2023-02-10T15:22:42;31.85;;;16.52;;
72373;SDS011;60349;64.132;-21.820;2023-02-10T15:33:16;24.75;;;10.70;;
72373;SDS011;60349;64.132;-21.820;2023-02-10T15:38:28;18.20;;;7.35;;
72373;SDS011;60349;64.132;-21.820;2023-02-10T15:40:55;17.27;;;7.53;;
72373;SDS011;60349;64.132;-21.820;2023-02-10T15:45:48;21.30;;;6.43;;
72373;SDS011;60349;64.132;-21.820;2023-02-10T15:48:20;16.10;;;4.90;;
72373;SDS011;60349;64.132;-21.820;2023-02-10T15:50:47;47.03;;;21.33;;
72373;SDS011;60349;64.132;-21.820;2023-02-10T15:53:16;39.35;;;18.48;;
72373;SDS011;60349;64.132;-21.820;2023-02-10T15:55:44;36.13;;;14.25;;
72373;SDS011;60349;64.132;-21.820;2023-02-10T15:58:11;33.28;;;12.10;;
72373;SDS011;60349;64.132;-21.820;2023-02-10T16:00:37;28.92;;;11.10;;
72373;SDS011;60349;64.132;-21.820;2023-02-10T16:03:04;28.23;;;9.98;;
72373;SDS011;60349;64.132;-21.820;2023-02-10T16:05:34;24.60;;;8.35;;
72373;SDS011;60349;64.132;-21.820;2023-02-10T16:08:05;21.63;;;6.40;;
72373;SDS011;60349;64.132;-21.820;2023-02-10T16:10:32;19.85;;;6.20;;
72373;SDS011;60349;64.132;-21.820;2023-02-10T16:12:58;17.95;;;5.05;;
72373;SDS011;60349;64.132;-21.820;2023-02-10T16:15:25;16.80;;;5.05;;
72373;SDS011;60349;64.132;-21.820;2023-02-10T16:17:53;16.85;;;4.85;;
72373;SDS011;60349;64.132;-21.820;2023-02-10T16:20:21;16.08;;;4.28;;
72373;SDS011;60349;64.132;-21.820;2023-02-10T16:22:48;20.48;;;3.58;;
72373;SDS011;60349;64.132;-21.820;2023-02-10T16:25:15;14.75;;;3.03;;
72373;SDS011;60349;64.132;-21.820;2023-02-10T16:27:41;14.55;;;2.75;;
72373;SDS011;60349;64.132;-21.820;2023-02-10T16:30:29;15.85;;;3.13;;
72373;SDS011;60349;64.132;-21.820;2023-02-10T16:32:55;15.45;;;2.40;;
72373;SDS011;60349;64.132;-21.820;2023-02-10T16:35:22;57.05;;;27.33;;
72373;SDS011;60349;64.132;-21.820;2023-02-10T16:37:48;52.88;;;24.25;;
72373;SDS011;60349;64.132;-21.820;2023-02-10T16:40:19;41.42;;;18.13;;
72373;SDS011;60349;64.132;-21.820;2023-02-10T16:42:47;59.28;;;25.55;;
72373;SDS011;60349;64.132;-21.820;2023-02-10T16:45:13;59.92;;;27.77;;
72373;SDS011;60349;64.132;-21.820;2023-02-10T16:47:39;72.43;;;32.00;;
72373;SDS011;60349;64.132;-21.820;2023-02-10T16:50:06;95.45;;;46.50;;
72373;SDS011;60349;64.132;-21.820;2023-02-10T16:52:32;85.10;;;42.67;;